sensor_id;sensor_type;location;lat;lon;timestamp;temperature;humidity
4356;DHT22;64374;51.482;7.408;2022-12-18T00:00:39;2.20;99.90
4356;DHT22;64374;51.482;7.408;2022-12-18T00:03:09;2.30;99.90
4356;DHT22;64374;51.482;7.408;2022-12-18T00:05:46;2.30;99.90
4356;DHT22;64374;51.482;7.408;2022-12-18T00:08:17;2.10;99.90
4356;DHT22;64374;51.482;7.408;2022-12-18T00:10:46;2.20;99.90
4356;DHT22;64374;51.482;7.408;2022-12-18T00:13:15;2.10;99.90
4356;DHT22;64374;51.482;7.408;2022-12-18T00:15:43;2.10;99.90
4356;DHT22;64374;51.482;7.408;2022-12-18T00:18:11;2.20;99.90
4356;DHT22;64374;51.482;7.408;2022-12-18T00:20:47;1.90;99.90
4356;DHT22;64374;51.482;7.408;2022-12-18T00:23:17;2.10;99.90
4356;DHT22;64374;51.482;7.408;2022-12-18T00:25:54;2.20;99.90
4356;DHT22;64374;51.482;7.408;2022-12-18T00:28:25;2.10;99.90
4356;DHT22;64374;51.482;7.408;2022-12-18T00:31:00;2.20;99.90
4356;DHT22;64374;51.482;7.408;2022-12-18T00:33:29;2.20;99.90
4356;DHT22;64374;51.482;7.408;2022-12-18T00:36:00;2.20;99.90
4356;DHT22;64374;51.482;7.408;2022-12-18T00:38:33;2.20;99.90
4356;DHT22;64374;51.482;7.408;2022-12-18T00:41:02;2.20;99.90
4356;DHT22;64374;51.482;7.408;2022-12-18T00:43:31;2.00;99.90
4356;DHT22;64374;51.482;7.408;2022-12-18T00:46:02;2.10;99.90
4356;DHT22;64374;51.482;7.408;2022-12-18T00:48:32;2.10;99.90
4356;DHT22;64374;51.482;7.408;2022-12-18T00:51:01;2.10;99.90
4356;DHT22;64374;51.482;7.408;2022-12-18T00:53:30;2.10;99.90
4356;DHT22;64374;51.482;7.408;2022-12-18T00:56:06;2.10;99.90
4356;DHT22;64374;51.482;7.408;2022-12-18T00:58:34;2.10;99.90
4356;DHT22;64374;51.482;7.408;2022-12-18T01:01:06;2.00;99.90
4356;DHT22;64374;51.482;7.408;2022-12-18T01:03:42;2.00;99.90
4356;DHT22;64374;51.482;7.408;2022-12-18T01:06:14;1.80;99.90
4356;DHT22;64374;51.482;7.408;2022-12-18T01:08:43;1.70;99.90
4356;DHT22;64374;51.482;7.408;2022-12-18T01:11:18;1.80;99.90
4356;DHT22;64374;51.482;7.408;2022-12-18T01:13:47;1.60;99.90
4356;DHT22;64374;51.482;7.408;2022-12-18T01:16:17;1.60;99.90
4356;DHT22;64374;51.482;7.408;2022-12-18T01:18:46;1.90;99.90
4356;DHT22;64374;51.482;7.408;2022-12-18T01:21:15;1.70;99.90
4356;DHT22;64374;51.482;7.408;2022-12-18T01:23:44;1.80;99.90
4356;DHT22;64374;51.482;7.408;2022-12-18T01:26:17;1.80;99.90
4356;DHT22;64374;51.482;7.408;2022-12-18T01:28:46;1.80;99.90
4356;DHT22;64374;51.482;7.408;2022-12-18T01:31:17;1.70;99.90
4356;DHT22;64374;51.482;7.408;2022-12-18T01:33:49;2.00;99.90
4356;DHT22;64374;51.482;7.408;2022-12-18T01:36:20;1.80;99.90
4356;DHT22;64374;51.482;7.408;2022-12-18T01:38:50;2.00;99.90
4356;DHT22;64374;51.482;7.408;2022-12-18T01:41:21;2.00;99.90
4356;DHT22;64374;51.482;7.408;2022-12-18T01:43:53;2.30;99.90
4356;DHT22;64374;51.482;7.408;2022-12-18T01:46:29;2.10;99.90
4356;DHT22;64374;51.482;7.408;2022-12-18T01:49:00;2.10;99.90
4356;DHT22;64374;51.482;7.408;2022-12-18T01:51:32;2.10;99.90
4356;DHT22;64374;51.482;7.408;2022-12-18T01:54:04;2.30;99.90
4356;DHT22;64374;51.482;7.408;2022-12-18T01:56:37;2.30;99.90
4356;DHT22;64374;51.482;7.408;2022-12-18T01:59:08;2.20;99.90
4356;DHT22;64374;51.482;7.408;2022-12-18T02:01:40;2.10;99.90
4356;DHT22;64374;51.482;7.408;2022-12-18T02:04:20;2.20;99.90
4356;DHT22;64374;51.482;7.408;2022-12-18T02:06:52;2.30;99.90
4356;DHT22;64374;51.482;7.408;2022-12-18T02:09:33;2.00;99.90
4356;DHT22;64374;51.482;7.408;2022-12-18T02:12:16;2.00;99.90
4356;DHT22;64374;51.482;7.408;2022-12-18T02:14:47;2.10;99.90
4356;DHT22;64374;51.482;7.408;2022-12-18T02:17:19;2.00;99.90
4356;DHT22;64374;51.482;7.408;2022-12-18T02:20:01;2.00;99.90
4356;DHT22;64374;51.482;7.408;2022-12-18T02:22:43;2.00;99.90
4356;DHT22;64374;51.482;7.408;2022-12-18T02:25:25;2.00;99.90
4356;DHT22;64374;51.482;7.408;2022-12-18T02:28:06;2.00;99.90
4356;DHT22;64374;51.482;7.408;2022-12-18T02:30:37;2.10;99.90
4356;DHT22;64374;51.482;7.408;2022-12-18T02:33:09;2.20;99.90
4356;DHT22;64374;51.482;7.408;2022-12-18T02:35:39;2.00;99.90
4356;DHT22;64374;51.482;7.408;2022-12-18T02:38:09;2.20;99.90
4356;DHT22;64374;51.482;7.408;2022-12-18T02:40:41;2.20;99.90
4356;DHT22;64374;51.482;7.408;2022-12-18T02:43:16;2.40;99.90
4356;DHT22;64374;51.482;7.408;2022-12-18T02:45:49;2.70;99.90
4356;DHT22;64374;51.482;7.408;2022-12-18T02:48:26;2.80;99.90
4356;DHT22;64374;51.482;7.408;2022-12-18T02:51:02;2.80;99.90
4356;DHT22;64374;51.482;7.408;2022-12-18T02:53:36;2.90;99.90
4356;DHT22;64374;51.482;7.408;2022-12-18T02:56:16;2.70;99.90
4356;DHT22;64374;51.482;7.408;2022-12-18T02:58:56;2.80;99.90
4356;DHT22;64374;51.482;7.408;2022-12-18T03:01:53;2.80;99.90
4356;DHT22;64374;51.482;7.408;2022-12-18T03:04:30;2.80;99.90
4356;DHT22;64374;51.482;7.408;2022-12-18T03:07:03;3.00;99.90
4356;DHT22;64374;51.482;7.408;2022-12-18T03:09:38;3.10;99.90
4356;DHT22;64374;51.482;7.408;2022-12-18T03:12:12;3.20;99.90
4356;DHT22;64374;51.482;7.408;2022-12-18T03:15:02;3.10;99.90
4356;DHT22;64374;51.482;7.408;2022-12-18T03:17:33;3.10;99.90
4356;DHT22;64374;51.482;7.408;2022-12-18T03:20:07;3.20;99.90
4356;DHT22;64374;51.482;7.408;2022-12-18T03:22:37;3.20;99.90
4356;DHT22;64374;51.482;7.408;2022-12-18T03:25:10;3.10;99.90
4356;DHT22;64374;51.482;7.408;2022-12-18T03:27:48;3.20;99.90
4356;DHT22;64374;51.482;7.408;2022-12-18T03:30:21;3.20;99.90
4356;DHT22;64374;51.482;7.408;2022-12-18T03:32:53;3.30;99.90
4356;DHT22;64374;51.482;7.408;2022-12-18T03:35:31;3.30;99.90
4356;DHT22;64374;51.482;7.408;2022-12-18T03:38:00;3.20;99.90
4356;DHT22;64374;51.482;7.408;2022-12-18T03:40:34;3.20;99.90
4356;DHT22;64374;51.482;7.408;2022-12-18T03:43:08;3.30;99.90
4356;DHT22;64374;51.482;7.408;2022-12-18T03:45:44;3.20;99.90
4356;DHT22;64374;51.482;7.408;2022-12-18T03:48:20;3.10;99.90
4356;DHT22;64374;51.482;7.408;2022-12-18T03:50:56;3.00;99.90
4356;DHT22;64374;51.482;7.408;2022-12-18T03:53:33;3.20;99.90
4356;DHT22;64374;51.482;7.408;2022-12-18T03:56:04;3.20;99.90
4356;DHT22;64374;51.482;7.408;2022-12-18T03:58:39;3.10;99.90
4356;DHT22;64374;51.482;7.408;2022-12-18T04:01:33;3.10;99.90
4356;DHT22;64374;51.482;7.408;2022-12-18T04:04:20;3.10;99.90
4356;DHT22;64374;51.482;7.408;2022-12-18T04:06:51;3.20;99.90
4356;DHT22;64374;51.482;7.408;2022-12-18T04:09:20;3.20;99.90
4356;DHT22;64374;51.482;7.408;2022-12-18T04:11:52;3.30;99.90
4356;DHT22;64374;51.482;7.408;2022-12-18T04:14:21;3.10;99.90
4356;DHT22;64374;51.482;7.408;2022-12-18T04:17:03;3.00;99.90
4356;DHT22;64374;51.482;7.408;2022-12-18T04:19:32;3.00;99.90
4356;DHT22;64374;51.482;7.408;2022-12-18T04:22:02;3.00;99.90
4356;DHT22;64374;51.482;7.408;2022-12-18T04:24:42;2.90;99.90
4356;DHT22;64374;51.482;7.408;2022-12-18T04:27:18;2.80;99.90
4356;DHT22;64374;51.482;7.408;2022-12-18T04:29:49;2.60;99.90
4356;DHT22;64374;51.482;7.408;2022-12-18T04:32:19;2.80;99.90
4356;DHT22;64374;51.482;7.408;2022-12-18T04:34:50;2.60;99.90
4356;DHT22;64374;51.482;7.408;2022-12-18T04:37:22;2.60;99.90
4356;DHT22;64374;51.482;7.408;2022-12-18T04:39:50;2.50;99.90
4356;DHT22;64374;51.482;7.408;2022-12-18T04:42:29;2.50;99.90
4356;DHT22;64374;51.482;7.408;2022-12-18T04:44:57;2.60;99.90
4356;DHT22;64374;51.482;7.408;2022-12-18T04:47:26;2.60;99.90
4356;DHT22;64374;51.482;7.408;2022-12-18T04:49:56;2.70;99.90
4356;DHT22;64374;51.482;7.408;2022-12-18T04:52:24;3.00;99.90
4356;DHT22;64374;51.482;7.408;2022-12-18T04:54:52;3.10;99.90
4356;DHT22;64374;51.482;7.408;2022-12-18T04:57:21;3.10;99.90
4356;DHT22;64374;51.482;7.408;2022-12-18T04:59:50;3.20;99.90
4356;DHT22;64374;51.482;7.408;2022-12-18T05:02:19;3.30;99.90
4356;DHT22;64374;51.482;7.408;2022-12-18T05:04:50;3.30;99.90
4356;DHT22;64374;51.482;7.408;2022-12-18T05:07:18;3.30;99.90
4356;DHT22;64374;51.482;7.408;2022-12-18T05:09:48;3.40;99.90
4356;DHT22;64374;51.482;7.408;2022-12-18T05:12:17;3.50;99.90
4356;DHT22;64374;51.482;7.408;2022-12-18T05:14:49;3.40;99.90
4356;DHT22;64374;51.482;7.408;2022-12-18T05:17:19;3.50;99.90
4356;DHT22;64374;51.482;7.408;2022-12-18T05:19:51;3.40;99.90
4356;DHT22;64374;51.482;7.408;2022-12-18T05:22:23;3.50;99.90
4356;DHT22;64374;51.482;7.408;2022-12-18T05:24:53;3.40;99.90
4356;DHT22;64374;51.482;7.408;2022-12-18T05:27:21;3.30;99.90
4356;DHT22;64374;51.482;7.408;2022-12-18T05:29:52;3.50;99.90
4356;DHT22;64374;51.482;7.408;2022-12-18T05:32:20;3.40;99.90
4356;DHT22;64374;51.482;7.408;2022-12-18T05:34:50;3.40;99.90
4356;DHT22;64374;51.482;7.408;2022-12-18T05:37:18;3.30;99.90
4356;DHT22;64374;51.482;7.408;2022-12-18T05:39:48;3.20;99.90
4356;DHT22;64374;51.482;7.408;2022-12-18T05:42:16;3.20;99.90
4356;DHT22;64374;51.482;7.408;2022-12-18T05:44:44;3.20;99.90
4356;DHT22;64374;51.482;7.408;2022-12-18T05:47:13;3.10;99.90
4356;DHT22;64374;51.482;7.408;2022-12-18T05:49:44;3.00;99.90
4356;DHT22;64374;51.482;7.408;2022-12-18T05:52:14;3.10;99.90
4356;DHT22;64374;51.482;7.408;2022-12-18T05:54:42;3.20;99.90
4356;DHT22;64374;51.482;7.408;2022-12-18T05:57:10;3.10;99.90
4356;DHT22;64374;51.482;7.408;2022-12-18T05:59:39;3.10;99.90
4356;DHT22;64374;51.482;7.408;2022-12-18T06:02:10;3.10;99.90
4356;DHT22;64374;51.482;7.408;2022-12-18T06:04:39;3.00;99.90
4356;DHT22;64374;51.482;7.408;2022-12-18T06:07:07;3.00;99.90
4356;DHT22;64374;51.482;7.408;2022-12-18T06:09:37;3.20;99.90
4356;DHT22;64374;51.482;7.408;2022-12-18T06:12:05;3.20;99.90
4356;DHT22;64374;51.482;7.408;2022-12-18T06:14:33;3.20;99.90
4356;DHT22;64374;51.482;7.408;2022-12-18T06:17:02;3.30;99.90
4356;DHT22;64374;51.482;7.408;2022-12-18T06:19:38;3.20;99.90
4356;DHT22;64374;51.482;7.408;2022-12-18T06:22:06;3.10;99.90
4356;DHT22;64374;51.482;7.408;2022-12-18T06:24:34;3.30;99.90
4356;DHT22;64374;51.482;7.408;2022-12-18T06:27:04;3.20;99.90
4356;DHT22;64374;51.482;7.408;2022-12-18T06:29:33;3.20;99.90
4356;DHT22;64374;51.482;7.408;2022-12-18T06:32:04;3.20;99.90
4356;DHT22;64374;51.482;7.408;2022-12-18T06:34:33;3.20;99.90
4356;DHT22;64374;51.482;7.408;2022-12-18T06:37:02;3.30;99.90
4356;DHT22;64374;51.482;7.408;2022-12-18T06:39:30;3.30;99.90
4356;DHT22;64374;51.482;7.408;2022-12-18T06:41:58;3.30;99.90
4356;DHT22;64374;51.482;7.408;2022-12-18T06:44:28;3.40;99.90
4356;DHT22;64374;51.482;7.408;2022-12-18T06:46:56;3.30;99.90
4356;DHT22;64374;51.482;7.408;2022-12-18T06:49:24;3.20;99.90
4356;DHT22;64374;51.482;7.408;2022-12-18T06:51:56;3.20;99.90
4356;DHT22;64374;51.482;7.408;2022-12-18T06:54:27;3.30;99.90
4356;DHT22;64374;51.482;7.408;2022-12-18T06:56:56;3.20;99.90
4356;DHT22;64374;51.482;7.408;2022-12-18T06:59:24;3.40;99.90
4356;DHT22;64374;51.482;7.408;2022-12-18T07:01:56;3.30;99.90
4356;DHT22;64374;51.482;7.408;2022-12-18T07:04:28;3.50;99.90
4356;DHT22;64374;51.482;7.408;2022-12-18T07:06:56;3.40;99.90
4356;DHT22;64374;51.482;7.408;2022-12-18T07:09:25;3.30;99.90
4356;DHT22;64374;51.482;7.408;2022-12-18T07:11:57;3.40;99.90
4356;DHT22;64374;51.482;7.408;2022-12-18T07:14:26;3.40;99.90
4356;DHT22;64374;51.482;7.408;2022-12-18T07:16:57;3.40;99.90
4356;DHT22;64374;51.482;7.408;2022-12-18T07:19:26;3.50;99.90
4356;DHT22;64374;51.482;7.408;2022-12-18T07:21:55;3.50;99.90
4356;DHT22;64374;51.482;7.408;2022-12-18T07:24:23;3.40;99.90
4356;DHT22;64374;51.482;7.408;2022-12-18T07:26:52;3.40;99.90
4356;DHT22;64374;51.482;7.408;2022-12-18T07:29:21;3.60;99.90
4356;DHT22;64374;51.482;7.408;2022-12-18T07:31:49;3.60;99.90
4356;DHT22;64374;51.482;7.408;2022-12-18T07:34:21;3.70;99.90
4356;DHT22;64374;51.482;7.408;2022-12-18T07:36:49;3.90;99.90
4356;DHT22;64374;51.482;7.408;2022-12-18T07:39:17;3.70;99.90
4356;DHT22;64374;51.482;7.408;2022-12-18T07:41:46;3.80;99.90
4356;DHT22;64374;51.482;7.408;2022-12-18T07:44:39;3.70;99.90
4356;DHT22;64374;51.482;7.408;2022-12-18T07:47:13;3.90;99.90
4356;DHT22;64374;51.482;7.408;2022-12-18T07:49:43;3.90;99.90
4356;DHT22;64374;51.482;7.408;2022-12-18T07:52:11;3.80;99.90
4356;DHT22;64374;51.482;7.408;2022-12-18T07:54:40;3.80;99.90
4356;DHT22;64374;51.482;7.408;2022-12-18T07:57:09;3.90;99.90
4356;DHT22;64374;51.482;7.408;2022-12-18T07:59:56;3.90;99.90
4356;DHT22;64374;51.482;7.408;2022-12-18T08:02:26;3.80;99.90
4356;DHT22;64374;51.482;7.408;2022-12-18T08:05:04;3.80;99.90
4356;DHT22;64374;51.482;7.408;2022-12-18T08:07:35;3.80;99.90
4356;DHT22;64374;51.482;7.408;2022-12-18T08:10:04;3.90;99.90
4356;DHT22;64374;51.482;7.408;2022-12-18T08:12:35;3.90;99.90
4356;DHT22;64374;51.482;7.408;2022-12-18T08:15:04;4.00;99.90
4356;DHT22;64374;51.482;7.408;2022-12-18T08:17:32;3.80;99.90
4356;DHT22;64374;51.482;7.408;2022-12-18T08:20:02;3.90;99.90
4356;DHT22;64374;51.482;7.408;2022-12-18T08:22:33;3.90;99.90
4356;DHT22;64374;51.482;7.408;2022-12-18T08:25:05;3.70;99.90
4356;DHT22;64374;51.482;7.408;2022-12-18T08:27:34;3.90;99.90
4356;DHT22;64374;51.482;7.408;2022-12-18T08:30:04;3.90;99.90
4356;DHT22;64374;51.482;7.408;2022-12-18T08:32:33;3.90;99.90
4356;DHT22;64374;51.482;7.408;2022-12-18T08:35:06;3.80;99.90
4356;DHT22;64374;51.482;7.408;2022-12-18T08:37:38;4.00;99.90
4356;DHT22;64374;51.482;7.408;2022-12-18T08:40:14;4.00;99.90
4356;DHT22;64374;51.482;7.408;2022-12-18T08:42:43;4.10;99.90
4356;DHT22;64374;51.482;7.408;2022-12-18T08:45:29;4.20;99.90
4356;DHT22;64374;51.482;7.408;2022-12-18T08:48:01;4.40;99.90
4356;DHT22;64374;51.482;7.408;2022-12-18T08:50:30;4.50;99.90
4356;DHT22;64374;51.482;7.408;2022-12-18T08:52:59;4.40;99.90
4356;DHT22;64374;51.482;7.408;2022-12-18T08:55:29;4.50;99.90
4356;DHT22;64374;51.482;7.408;2022-12-18T08:57:58;4.60;99.90
4356;DHT22;64374;51.482;7.408;2022-12-18T09:00:26;4.60;99.90
4356;DHT22;64374;51.482;7.408;2022-12-18T09:02:57;4.70;99.90
4356;DHT22;64374;51.482;7.408;2022-12-18T09:05:25;4.70;99.90
4356;DHT22;64374;51.482;7.408;2022-12-18T09:07:55;4.90;99.90
4356;DHT22;64374;51.482;7.408;2022-12-18T09:10:24;5.00;99.90
4356;DHT22;64374;51.482;7.408;2022-12-18T09:12:52;5.00;99.90
4356;DHT22;64374;51.482;7.408;2022-12-18T09:15:21;5.00;99.90
4356;DHT22;64374;51.482;7.408;2022-12-18T09:17:49;4.90;99.90
4356;DHT22;64374;51.482;7.408;2022-12-18T09:20:19;4.90;99.90
4356;DHT22;64374;51.482;7.408;2022-12-18T09:22:48;4.80;99.90
4356;DHT22;64374;51.482;7.408;2022-12-18T09:25:18;5.00;99.90
4356;DHT22;64374;51.482;7.408;2022-12-18T09:27:49;5.10;99.60
4356;DHT22;64374;51.482;7.408;2022-12-18T09:30:18;5.10;98.90
4356;DHT22;64374;51.482;7.408;2022-12-18T09:32:49;5.30;99.40
4356;DHT22;64374;51.482;7.408;2022-12-18T09:35:17;5.40;98.90
4356;DHT22;64374;51.482;7.408;2022-12-18T09:37:45;5.30;98.20
4356;DHT22;64374;51.482;7.408;2022-12-18T09:40:14;5.30;97.80
4356;DHT22;64374;51.482;7.408;2022-12-18T09:42:49;5.50;98.10
4356;DHT22;64374;51.482;7.408;2022-12-18T09:45:19;5.40;97.60
4356;DHT22;64374;51.482;7.408;2022-12-18T09:47:55;5.40;98.10
4356;DHT22;64374;51.482;7.408;2022-12-18T09:50:28;5.30;98.00
4356;DHT22;64374;51.482;7.408;2022-12-18T09:53:02;5.50;98.20
4356;DHT22;64374;51.482;7.408;2022-12-18T09:55:35;5.80;98.50
4356;DHT22;64374;51.482;7.408;2022-12-18T09:58:15;5.80;97.00
4356;DHT22;64374;51.482;7.408;2022-12-18T10:00:45;5.40;96.00
4356;DHT22;64374;51.482;7.408;2022-12-18T10:03:15;5.70;97.80
4356;DHT22;64374;51.482;7.408;2022-12-18T10:05:49;5.90;97.20
4356;DHT22;64374;51.482;7.408;2022-12-18T10:08:25;6.10;96.10
4356;DHT22;64374;51.482;7.408;2022-12-18T10:11:09;6.20;96.30
4356;DHT22;64374;51.482;7.408;2022-12-18T10:13:48;6.20;95.60
4356;DHT22;64374;51.482;7.408;2022-12-18T10:16:29;6.20;95.60
4356;DHT22;64374;51.482;7.408;2022-12-18T10:19:14;6.40;95.10
4356;DHT22;64374;51.482;7.408;2022-12-18T10:21:54;6.50;94.80
4356;DHT22;64374;51.482;7.408;2022-12-18T10:24:32;6.50;93.90
4356;DHT22;64374;51.482;7.408;2022-12-18T10:27:12;6.40;93.90
4356;DHT22;64374;51.482;7.408;2022-12-18T10:29:44;6.20;93.20
4356;DHT22;64374;51.482;7.408;2022-12-18T10:32:16;6.10;92.70
4356;DHT22;64374;51.482;7.408;2022-12-18T10:34:57;6.40;93.40
4356;DHT22;64374;51.482;7.408;2022-12-18T10:37:29;6.50;93.80
4356;DHT22;64374;51.482;7.408;2022-12-18T10:40:12;6.50;93.60
4356;DHT22;64374;51.482;7.408;2022-12-18T10:43:03;6.60;92.60
4356;DHT22;64374;51.482;7.408;2022-12-18T10:45:33;6.70;92.00
4356;DHT22;64374;51.482;7.408;2022-12-18T10:48:18;6.70;92.00
4356;DHT22;64374;51.482;7.408;2022-12-18T10:50:50;6.90;92.30
4356;DHT22;64374;51.482;7.408;2022-12-18T10:53:41;7.00;92.70
4356;DHT22;64374;51.482;7.408;2022-12-18T10:56:25;7.20;92.40
4356;DHT22;64374;51.482;7.408;2022-12-18T10:59:00;7.10;92.70
4356;DHT22;64374;51.482;7.408;2022-12-18T11:01:46;7.10;91.80
4356;DHT22;64374;51.482;7.408;2022-12-18T11:04:20;7.00;92.20
4356;DHT22;64374;51.482;7.408;2022-12-18T11:06:54;7.00;92.60
4356;DHT22;64374;51.482;7.408;2022-12-18T11:09:24;7.10;92.90
4356;DHT22;64374;51.482;7.408;2022-12-18T11:11:55;7.30;93.30
4356;DHT22;64374;51.482;7.408;2022-12-18T11:14:28;7.40;92.80
4356;DHT22;64374;51.482;7.408;2022-12-18T11:17:03;7.40;92.60
4356;DHT22;64374;51.482;7.408;2022-12-18T11:19:55;7.60;92.30
4356;DHT22;64374;51.482;7.408;2022-12-18T11:22:26;7.70;91.90
4356;DHT22;64374;51.482;7.408;2022-12-18T11:24:59;7.70;91.10
4356;DHT22;64374;51.482;7.408;2022-12-18T11:27:54;7.50;91.20
4356;DHT22;64374;51.482;7.408;2022-12-18T11:30:25;7.80;91.30
4356;DHT22;64374;51.482;7.408;2022-12-18T11:33:03;7.60;91.80
4356;DHT22;64374;51.482;7.408;2022-12-18T11:35:49;7.80;91.80
4356;DHT22;64374;51.482;7.408;2022-12-18T11:38:24;7.70;90.60
4356;DHT22;64374;51.482;7.408;2022-12-18T11:40:58;7.70;90.40
4356;DHT22;64374;51.482;7.408;2022-12-18T11:43:31;7.80;90.20
4356;DHT22;64374;51.482;7.408;2022-12-18T11:46:07;7.70;90.20
4356;DHT22;64374;51.482;7.408;2022-12-18T11:48:54;7.70;90.10
4356;DHT22;64374;51.482;7.408;2022-12-18T11:51:28;7.70;90.90
4356;DHT22;64374;51.482;7.408;2022-12-18T11:53:58;7.60;90.80
4356;DHT22;64374;51.482;7.408;2022-12-18T11:56:30;7.40;90.60
4356;DHT22;64374;51.482;7.408;2022-12-18T11:59:08;7.30;91.40
4356;DHT22;64374;51.482;7.408;2022-12-18T12:01:48;7.60;91.80
4356;DHT22;64374;51.482;7.408;2022-12-18T12:04:46;7.50;91.20
4356;DHT22;64374;51.482;7.408;2022-12-18T12:07:23;7.50;91.40
4356;DHT22;64374;51.482;7.408;2022-12-18T12:10:03;7.40;91.40
4356;DHT22;64374;51.482;7.408;2022-12-18T12:12:39;7.40;91.70
4356;DHT22;64374;51.482;7.408;2022-12-18T12:15:28;7.50;91.50
4356;DHT22;64374;51.482;7.408;2022-12-18T12:18:12;7.60;89.60
4356;DHT22;64374;51.482;7.408;2022-12-18T12:20:51;7.60;89.40
4356;DHT22;64374;51.482;7.408;2022-12-18T12:23:29;7.70;87.20
4356;DHT22;64374;51.482;7.408;2022-12-18T12:26:04;7.70;87.50
4356;DHT22;64374;51.482;7.408;2022-12-18T12:28:55;7.60;86.80
4356;DHT22;64374;51.482;7.408;2022-12-18T12:31:47;7.70;86.30
4356;DHT22;64374;51.482;7.408;2022-12-18T12:34:29;7.70;87.40
4356;DHT22;64374;51.482;7.408;2022-12-18T12:37:19;7.80;86.10
4356;DHT22;64374;51.482;7.408;2022-12-18T12:39:52;7.80;85.60
4356;DHT22;64374;51.482;7.408;2022-12-18T12:42:29;7.80;86.90
4356;DHT22;64374;51.482;7.408;2022-12-18T12:45:22;7.80;85.10
4356;DHT22;64374;51.482;7.408;2022-12-18T12:47:53;7.90;85.40
4356;DHT22;64374;51.482;7.408;2022-12-18T12:50:23;7.90;84.40
4356;DHT22;64374;51.482;7.408;2022-12-18T12:52:55;7.70;84.70
4356;DHT22;64374;51.482;7.408;2022-12-18T12:55:28;7.80;84.50
4356;DHT22;64374;51.482;7.408;2022-12-18T12:58:02;7.80;84.20
4356;DHT22;64374;51.482;7.408;2022-12-18T13:00:40;7.70;84.80
4356;DHT22;64374;51.482;7.408;2022-12-18T13:03:15;7.70;84.60
4356;DHT22;64374;51.482;7.408;2022-12-18T13:05:53;7.80;83.50
4356;DHT22;64374;51.482;7.408;2022-12-18T13:08:26;7.70;83.80
4356;DHT22;64374;51.482;7.408;2022-12-18T13:11:30;7.80;84.30
4356;DHT22;64374;51.482;7.408;2022-12-18T13:14:32;7.80;84.00
4356;DHT22;64374;51.482;7.408;2022-12-18T13:17:29;7.70;82.30
4356;DHT22;64374;51.482;7.408;2022-12-18T13:20:10;7.90;83.80
4356;DHT22;64374;51.482;7.408;2022-12-18T13:22:43;7.80;78.30
4356;DHT22;64374;51.482;7.408;2022-12-18T13:25:38;7.80;79.10
4356;DHT22;64374;51.482;7.408;2022-12-18T13:28:09;7.70;77.90
4356;DHT22;64374;51.482;7.408;2022-12-18T13:30:44;7.80;78.80
4356;DHT22;64374;51.482;7.408;2022-12-18T13:33:39;7.70;77.50
4356;DHT22;64374;51.482;7.408;2022-12-18T13:36:30;7.60;76.10
4356;DHT22;64374;51.482;7.408;2022-12-18T13:39:22;7.60;77.20
4356;DHT22;64374;51.482;7.408;2022-12-18T13:42:38;7.70;77.70
4356;DHT22;64374;51.482;7.408;2022-12-18T13:45:45;7.70;78.70
4356;DHT22;64374;51.482;7.408;2022-12-18T13:48:19;7.80;78.90
4356;DHT22;64374;51.482;7.408;2022-12-18T13:50:53;7.70;78.90
4356;DHT22;64374;51.482;7.408;2022-12-18T13:53:27;7.70;79.50
4356;DHT22;64374;51.482;7.408;2022-12-18T13:55:56;7.70;79.80
4356;DHT22;64374;51.482;7.408;2022-12-18T13:58:29;8.00;79.60
4356;DHT22;64374;51.482;7.408;2022-12-18T14:00:57;7.70;80.00
4356;DHT22;64374;51.482;7.408;2022-12-18T14:03:29;7.80;80.20
4356;DHT22;64374;51.482;7.408;2022-12-18T14:06:06;7.80;79.70
4356;DHT22;64374;51.482;7.408;2022-12-18T14:08:39;7.80;79.90
4356;DHT22;64374;51.482;7.408;2022-12-18T14:11:19;7.60;80.20
4356;DHT22;64374;51.482;7.408;2022-12-18T14:13:50;7.80;81.70
4356;DHT22;64374;51.482;7.408;2022-12-18T14:16:22;7.70;81.40
4356;DHT22;64374;51.482;7.408;2022-12-18T14:18:53;7.60;81.80
4356;DHT22;64374;51.482;7.408;2022-12-18T14:21:46;7.60;83.10
4356;DHT22;64374;51.482;7.408;2022-12-18T14:24:17;7.60;82.90
4356;DHT22;64374;51.482;7.408;2022-12-18T14:26:47;7.50;82.70
4356;DHT22;64374;51.482;7.408;2022-12-18T14:29:25;7.40;83.70
4356;DHT22;64374;51.482;7.408;2022-12-18T14:32:10;7.50;84.80
4356;DHT22;64374;51.482;7.408;2022-12-18T14:34:46;7.60;83.40
4356;DHT22;64374;51.482;7.408;2022-12-18T14:37:16;7.50;84.40
4356;DHT22;64374;51.482;7.408;2022-12-18T14:39:53;7.50;84.80
4356;DHT22;64374;51.482;7.408;2022-12-18T14:42:22;7.50;85.60
4356;DHT22;64374;51.482;7.408;2022-12-18T14:45:36;7.60;85.20
4356;DHT22;64374;51.482;7.408;2022-12-18T14:48:15;7.60;85.60
4356;DHT22;64374;51.482;7.408;2022-12-18T14:50:58;7.50;84.40
4356;DHT22;64374;51.482;7.408;2022-12-18T14:53:33;7.40;90.30
4356;DHT22;64374;51.482;7.408;2022-12-18T14:56:21;7.10;87.60
4356;DHT22;64374;51.482;7.408;2022-12-18T14:58:52;7.00;90.50
4356;DHT22;64374;51.482;7.408;2022-12-18T15:01:26;6.50;88.50
4356;DHT22;64374;51.482;7.408;2022-12-18T15:03:57;6.00;87.10
4356;DHT22;64374;51.482;7.408;2022-12-18T15:06:32;5.90;87.20
4356;DHT22;64374;51.482;7.408;2022-12-18T15:09:03;5.80;87.90
4356;DHT22;64374;51.482;7.408;2022-12-18T15:11:34;5.80;87.50
4356;DHT22;64374;51.482;7.408;2022-12-18T15:14:23;5.30;86.50
4356;DHT22;64374;51.482;7.408;2022-12-18T15:16:54;5.00;87.10
4356;DHT22;64374;51.482;7.408;2022-12-18T15:19:33;5.10;90.20
4356;DHT22;64374;51.482;7.408;2022-12-18T15:22:02;5.40;91.10
4356;DHT22;64374;51.482;7.408;2022-12-18T15:24:32;5.20;87.30
4356;DHT22;64374;51.482;7.408;2022-12-18T15:27:04;4.90;86.20
4356;DHT22;64374;51.482;7.408;2022-12-18T15:29:33;5.00;86.70
4356;DHT22;64374;51.482;7.408;2022-12-18T15:32:04;5.10;87.60
4356;DHT22;64374;51.482;7.408;2022-12-18T15:34:33;5.10;86.40
4356;DHT22;64374;51.482;7.408;2022-12-18T15:37:04;4.90;86.50
4356;DHT22;64374;51.482;7.408;2022-12-18T15:39:32;4.90;86.70
4356;DHT22;64374;51.482;7.408;2022-12-18T15:42:03;4.70;86.00
4356;DHT22;64374;51.482;7.408;2022-12-18T15:44:49;4.70;87.50
4356;DHT22;64374;51.482;7.408;2022-12-18T15:47:18;4.40;87.30
4356;DHT22;64374;51.482;7.408;2022-12-18T15:49:47;4.50;87.90
4356;DHT22;64374;51.482;7.408;2022-12-18T15:52:15;4.60;88.00
4356;DHT22;64374;51.482;7.408;2022-12-18T15:54:52;4.80;88.70
4356;DHT22;64374;51.482;7.408;2022-12-18T15:57:38;4.80;87.90
4356;DHT22;64374;51.482;7.408;2022-12-18T16:00:12;4.60;87.00
4356;DHT22;64374;51.482;7.408;2022-12-18T16:02:44;4.50;88.60
4356;DHT22;64374;51.482;7.408;2022-12-18T16:05:15;4.60;88.80
4356;DHT22;64374;51.482;7.408;2022-12-18T16:07:43;4.80;89.30
4356;DHT22;64374;51.482;7.408;2022-12-18T16:10:15;4.80;89.90
4356;DHT22;64374;51.482;7.408;2022-12-18T16:12:43;5.20;90.20
4356;DHT22;64374;51.482;7.408;2022-12-18T16:15:13;5.20;90.20
4356;DHT22;64374;51.482;7.408;2022-12-18T16:17:52;5.30;90.50
4356;DHT22;64374;51.482;7.408;2022-12-18T16:20:22;5.20;90.30
4356;DHT22;64374;51.482;7.408;2022-12-18T16:22:51;5.30;90.80
4356;DHT22;64374;51.482;7.408;2022-12-18T16:25:24;5.80;91.20
4356;DHT22;64374;51.482;7.408;2022-12-18T16:27:54;5.80;91.20
4356;DHT22;64374;51.482;7.408;2022-12-18T16:30:24;5.90;91.10
4356;DHT22;64374;51.482;7.408;2022-12-18T16:32:59;5.90;91.60
4356;DHT22;64374;51.482;7.408;2022-12-18T16:35:28;5.50;92.10
4356;DHT22;64374;51.482;7.408;2022-12-18T16:37:55;5.20;92.70
4356;DHT22;64374;51.482;7.408;2022-12-18T16:40:24;5.30;93.60
4356;DHT22;64374;51.482;7.408;2022-12-18T16:42:55;5.00;94.50
4356;DHT22;64374;51.482;7.408;2022-12-18T16:45:23;5.30;95.00